createdAt,value
2023-04-16T00:00:40.586Z,11.38
2023-04-16T00:03:11.241Z,11.39
2023-04-16T00:05:39.098Z,11.52
2023-04-16T00:08:06.948Z,11.24
2023-04-16T00:10:35.861Z,11.29
2023-04-16T00:13:03.477Z,11.50
2023-04-16T00:15:31.065Z,11.71
2023-04-16T00:17:58.784Z,11.61
2023-04-16T00:20:26.325Z,11.80
2023-04-16T00:22:54.061Z,11.81
2023-04-16T00:25:20.902Z,11.38
2023-04-16T00:27:48.594Z,10.88
2023-04-16T00:30:15.323Z,10.48
2023-04-16T00:32:42.214Z,10.61
2023-04-16T00:35:09.162Z,10.70
2023-04-16T00:37:35.953Z,10.80
2023-04-16T00:40:03.753Z,11.09
2023-04-16T00:42:30.526Z,11.24
2023-04-16T00:44:57.265Z,11.15
2023-04-16T00:47:24.394Z,11.30
2023-04-16T00:49:51.131Z,11.16
2023-04-16T00:52:17.953Z,11.27
2023-04-16T00:54:44.970Z,11.10
2023-04-16T00:57:14.665Z,10.87
2023-04-16T00:59:42.537Z,10.45
2023-04-16T01:02:10.303Z,10.28
2023-04-16T01:04:37.997Z,10.40
2023-04-16T01:07:05.746Z,10.28
2023-04-16T01:09:33.349Z,10.30
2023-04-16T01:12:00.078Z,10.54
2023-04-16T01:14:27.864Z,10.59
2023-04-16T01:16:55.434Z,10.67
2023-04-16T01:19:22.193Z,10.58
2023-04-16T01:21:49.101Z,10.65
2023-04-16T01:24:16.721Z,10.62
2023-04-16T01:26:43.537Z,10.59
2023-04-16T01:29:10.771Z,10.73
2023-04-16T01:31:37.775Z,10.91
2023-04-16T01:34:06.199Z,11.09
2023-04-16T01:36:32.897Z,11.10
2023-04-16T01:38:59.783Z,10.92
2023-04-16T01:41:27.379Z,10.95
2023-04-16T01:43:55.156Z,10.64
2023-04-16T01:46:27.990Z,10.43
2023-04-16T01:48:55.524Z,10.20
2023-04-16T01:51:23.294Z,10.19
2023-04-16T01:53:50.719Z,10.20
2023-04-16T01:56:17.542Z,10.16
2023-04-16T01:58:46.315Z,10.03
2023-04-16T02:01:14.191Z,9.91
2023-04-16T02:03:42.364Z,9.66
2023-04-16T02:06:09.298Z,9.65
2023-04-16T02:08:36.327Z,9.60
2023-04-16T02:11:04.125Z,9.55
2023-04-16T02:13:31.730Z,9.54
2023-04-16T02:15:59.515Z,9.64
2023-04-16T02:18:27.369Z,9.70
2023-04-16T02:20:57.841Z,9.69
2023-04-16T02:23:25.520Z,9.74
2023-04-16T02:25:53.272Z,9.97
2023-04-16T02:28:20.136Z,9.82
2023-04-16T02:30:47.718Z,9.75
2023-04-16T02:33:14.599Z,9.52
2023-04-16T02:35:42.392Z,9.58
2023-04-16T02:38:10.073Z,9.42
2023-04-16T02:40:37.351Z,9.41
2023-04-16T02:43:04.299Z,9.42
2023-04-16T02:45:31.969Z,9.56
2023-04-16T02:48:00.160Z,9.31
2023-04-16T02:50:27.976Z,9.27
2023-04-16T02:52:55.695Z,9.25
2023-04-16T02:55:22.466Z,9.10
2023-04-16T02:57:50.140Z,9.07
2023-04-16T03:00:18.031Z,9.21
2023-04-16T03:02:47.146Z,9.33
2023-04-16T03:05:14.940Z,9.45
2023-04-16T03:07:42.572Z,9.43
2023-04-16T03:10:09.592Z,9.32
2023-04-16T03:12:36.523Z,9.29
2023-04-16T03:15:04.696Z,9.19
2023-04-16T03:17:32.575Z,9.25
2023-04-16T03:20:00.309Z,9.44
2023-04-16T03:22:27.109Z,9.52
2023-04-16T03:24:55.007Z,9.67
2023-04-16T03:27:22.725Z,9.67
2023-04-16T03:29:49.584Z,9.79
2023-04-16T03:32:17.549Z,9.53
2023-04-16T03:34:44.532Z,9.56
2023-04-16T03:37:13.978Z,9.77
2023-04-16T03:39:41.862Z,9.82
2023-04-16T03:42:08.694Z,9.76
2023-04-16T03:44:36.448Z,9.83
2023-04-16T03:47:04.078Z,9.82
2023-04-16T03:49:31.809Z,9.75
2023-04-16T03:51:58.623Z,9.52
2023-04-16T03:54:25.582Z,9.76
2023-04-16T03:56:52.366Z,9.82
2023-04-16T03:59:20.042Z,9.62
2023-04-16T04:01:46.877Z,9.61
2023-04-16T04:04:15.449Z,9.74
2023-04-16T04:06:42.383Z,9.82
2023-04-16T04:09:09.279Z,9.86
2023-04-16T04:11:37.126Z,9.90
2023-04-16T04:14:05.451Z,10.08
2023-04-16T04:16:33.177Z,10.12
2023-04-16T04:19:01.251Z,10.17
2023-04-16T04:21:28.959Z,10.18
2023-04-16T04:23:56.237Z,10.05
2023-04-16T04:26:24.072Z,10.02
2023-04-16T04:28:51.102Z,10.07
2023-04-16T04:31:18.096Z,9.94
2023-04-16T04:33:45.124Z,10.04
2023-04-16T04:36:11.907Z,10.22
2023-04-16T04:38:39.608Z,10.17
2023-04-16T04:41:07.260Z,10.32
2023-04-16T04:43:34.094Z,10.30
2023-04-16T04:46:01.875Z,10.37
2023-04-16T04:48:28.820Z,10.31
2023-04-16T04:50:55.913Z,10.37
2023-04-16T04:53:22.779Z,10.25
2023-04-16T04:55:53.216Z,10.28
2023-04-16T04:58:21.824Z,10.30
2023-04-16T05:00:48.721Z,10.34
2023-04-16T05:03:22.001Z,10.45
2023-04-16T05:05:49.774Z,10.25
2023-04-16T05:08:16.810Z,10.43
2023-04-16T05:10:46.455Z,10.44
2023-04-16T05:13:13.272Z,10.67
2023-04-16T05:15:42.180Z,10.71
2023-04-16T05:18:09.103Z,10.61
2023-04-16T05:20:37.853Z,10.74
2023-04-16T05:23:05.539Z,10.85
2023-04-16T05:25:32.679Z,10.82
2023-04-16T05:28:00.621Z,10.84
2023-04-16T05:30:29.402Z,10.93
2023-04-16T05:32:57.064Z,11.11
2023-04-16T05:35:25.955Z,11.16
2023-04-16T05:37:54.843Z,11.14
2023-04-16T05:40:21.976Z,11.03
2023-04-16T05:42:48.916Z,10.96
2023-04-16T05:45:16.118Z,11.18
2023-04-16T05:47:44.078Z,11.32
2023-04-16T05:50:14.729Z,11.39
2023-04-16T05:52:41.795Z,11.37
2023-04-16T05:55:10.657Z,11.45
2023-04-16T05:57:38.358Z,11.36
2023-04-16T06:00:07.036Z,11.42
2023-04-16T06:02:35.126Z,11.52
2023-04-16T06:05:05.243Z,11.32
2023-04-16T06:07:32.918Z,11.37
2023-04-16T06:09:59.914Z,11.44
2023-04-16T06:12:29.471Z,11.54
2023-04-16T06:14:56.607Z,11.55
2023-04-16T06:17:24.390Z,11.45
2023-04-16T06:19:53.262Z,11.65
2023-04-16T06:22:21.298Z,11.77
2023-04-16T06:24:48.266Z,11.81
2023-04-16T06:27:15.249Z,11.77
2023-04-16T06:29:42.718Z,11.80
2023-04-16T06:32:09.704Z,11.89
2023-04-16T06:34:39.600Z,11.95
2023-04-16T06:37:09.072Z,11.96
2023-04-16T06:39:38.217Z,12.13
2023-04-16T06:42:07.760Z,12.06
2023-04-16T06:44:36.761Z,11.99
2023-04-16T06:47:03.821Z,11.99
2023-04-16T06:49:33.588Z,11.91
2023-04-16T06:52:00.786Z,12.05
2023-04-16T06:54:28.523Z,12.07
2023-04-16T06:56:56.617Z,12.13
2023-04-16T06:59:25.610Z,11.85
2023-04-16T07:01:53.472Z,11.95
2023-04-16T07:04:20.744Z,12.04
2023-04-16T07:06:47.760Z,12.26
2023-04-16T07:09:14.651Z,12.44
2023-04-16T07:11:42.185Z,12.48
2023-04-16T07:14:11.168Z,12.82
2023-04-16T07:16:40.804Z,12.87
2023-04-16T07:19:09.027Z,12.89
2023-04-16T07:21:36.224Z,13.12
2023-04-16T07:24:05.842Z,12.96
2023-04-16T07:26:32.857Z,13.00
2023-04-16T07:29:00.712Z,13.13
2023-04-16T07:31:28.686Z,12.58
2023-04-16T07:33:56.482Z,12.54
2023-04-16T07:36:27.549Z,12.62
2023-04-16T07:38:54.414Z,12.93
2023-04-16T07:41:23.480Z,13.06
2023-04-16T07:43:52.908Z,13.36
2023-04-16T07:46:20.254Z,13.50
2023-04-16T07:48:48.098Z,13.28
2023-04-16T07:51:16.025Z,13.50
2023-04-16T07:53:44.781Z,13.48
2023-04-16T07:56:11.738Z,13.57
2023-04-16T07:58:39.459Z,13.89
2023-04-16T08:01:06.593Z,14.30
2023-04-16T08:03:34.610Z,14.35
2023-04-16T08:06:03.865Z,14.35
2023-04-16T08:08:32.784Z,14.37
2023-04-16T08:11:00.592Z,14.17
2023-04-16T08:13:28.520Z,13.78
2023-04-16T08:15:58.117Z,13.98
2023-04-16T08:18:26.048Z,14.22
2023-04-16T08:20:55.709Z,14.45
2023-04-16T08:23:24.635Z,14.78
2023-04-16T08:25:53.713Z,15.02
2023-04-16T08:28:22.388Z,14.96
2023-04-16T08:30:51.899Z,14.83
2023-04-16T08:33:19.619Z,14.82
2023-04-16T08:35:46.531Z,14.92
2023-04-16T08:38:14.161Z,15.13
2023-04-16T08:40:47.316Z,15.14
2023-04-16T08:43:18.276Z,14.93
2023-04-16T08:45:47.906Z,15.22
2023-04-16T08:48:15.923Z,15.09
2023-04-16T08:50:48.351Z,14.34
2023-04-16T08:53:19.476Z,14.79
2023-04-16T08:55:51.592Z,14.99
2023-04-16T08:58:22.689Z,15.04
2023-04-16T09:00:52.213Z,15.08
2023-04-16T09:03:22.074Z,14.95
2023-04-16T09:05:50.681Z,15.10
2023-04-16T09:08:20.544Z,15.14
2023-04-16T09:10:49.287Z,15.29
2023-04-16T09:13:20.509Z,15.34
2023-04-16T09:15:47.655Z,15.47
2023-04-16T09:18:15.343Z,15.58
2023-04-16T09:20:42.244Z,15.60
2023-04-16T09:23:11.083Z,15.78
2023-04-16T09:25:39.034Z,15.96
2023-04-16T09:28:06.770Z,15.94
2023-04-16T09:30:34.993Z,15.60
2023-04-16T09:33:23.270Z,15.86
2023-04-16T09:35:53.791Z,15.65
2023-04-16T09:38:21.673Z,15.90
2023-04-16T09:41:07.270Z,16.24
2023-04-16T09:43:35.725Z,16.36
2023-04-16T09:46:08.102Z,16.56
2023-04-16T09:48:36.393Z,16.83
2023-04-16T09:51:06.807Z,17.12
2023-04-16T09:53:34.471Z,17.77
2023-04-16T09:56:06.405Z,18.24
2023-04-16T09:58:36.668Z,18.10
2023-04-16T10:01:12.036Z,17.67
2023-04-16T10:03:41.009Z,17.87
2023-04-16T10:06:16.280Z,17.81
2023-04-16T10:08:50.565Z,17.49
2023-04-16T10:11:21.094Z,18.34
2023-04-16T10:13:50.988Z,18.53
2023-04-16T10:16:19.190Z,18.37
2023-04-16T10:18:47.698Z,18.45
2023-04-16T10:21:16.426Z,18.76
2023-04-16T10:23:44.699Z,18.68
2023-04-16T10:26:11.856Z,19.00
2023-04-16T10:28:41.256Z,19.07
2023-04-16T10:31:09.780Z,19.00
2023-04-16T10:33:41.538Z,18.63
2023-04-16T10:36:16.292Z,18.93
2023-04-16T10:38:48.349Z,17.88
2023-04-16T10:41:15.693Z,17.79
2023-04-16T10:43:47.700Z,18.29
2023-04-16T10:46:18.789Z,18.39
2023-04-16T10:48:50.182Z,18.93
2023-04-16T10:51:28.337Z,19.32
2023-04-16T10:53:56.576Z,19.54
2023-04-16T10:56:27.953Z,19.84
2023-04-16T10:58:56.370Z,20.23
2023-04-16T11:01:37.835Z,20.10
2023-04-16T11:04:20.007Z,19.81
2023-04-16T11:07:11.733Z,20.42
2023-04-16T11:09:49.983Z,20.42
2023-04-16T11:12:20.908Z,20.90
2023-04-16T11:14:58.934Z,20.66
2023-04-16T11:17:30.997Z,20.43
2023-04-16T11:19:58.473Z,20.48
2023-04-16T11:22:27.327Z,20.26
2023-04-16T11:24:57.888Z,20.14
2023-04-16T11:27:25.762Z,20.37
2023-04-16T11:30:06.376Z,20.30
2023-04-16T11:32:34.841Z,20.39
2023-04-16T11:35:20.102Z,19.79
2023-04-16T11:37:48.853Z,18.87
2023-04-16T11:40:16.375Z,18.76
2023-04-16T11:42:44.531Z,18.52
2023-04-16T11:45:12.505Z,18.81
2023-04-16T11:47:43.843Z,18.72
2023-04-16T11:50:20.771Z,18.77
2023-04-16T11:52:48.858Z,19.12
2023-04-16T11:55:16.155Z,19.12
2023-04-16T11:57:43.383Z,19.08
2023-04-16T12:00:15.902Z,19.22
2023-04-16T12:02:51.131Z,18.98
2023-04-16T12:05:34.967Z,18.63
2023-04-16T12:08:09.538Z,19.24
2023-04-16T12:10:54.874Z,19.95
2023-04-16T12:13:21.837Z,20.34
2023-04-16T12:15:57.304Z,21.35
2023-04-16T12:18:27.239Z,21.87
2023-04-16T12:20:55.074Z,22.23
2023-04-16T12:23:26.557Z,21.27
2023-04-16T12:25:55.073Z,21.82
2023-04-16T12:28:29.964Z,21.82
2023-04-16T12:30:57.694Z,22.05
2023-04-16T12:33:25.518Z,22.42
2023-04-16T12:35:53.032Z,22.39
2023-04-16T12:38:22.799Z,22.41
2023-04-16T12:40:52.128Z,22.37
2023-04-16T12:43:21.567Z,20.06
2023-04-16T12:45:49.603Z,20.81
2023-04-16T12:48:17.184Z,20.70
2023-04-16T12:50:44.847Z,21.56
2023-04-16T12:53:12.746Z,21.96
2023-04-16T12:55:40.236Z,22.47
2023-04-16T12:58:11.112Z,22.46
2023-04-16T13:00:46.442Z,21.93
2023-04-16T13:03:14.170Z,22.06
2023-04-16T13:05:41.926Z,22.12
2023-04-16T13:08:09.533Z,21.92
2023-04-16T13:10:37.239Z,21.11
2023-04-16T13:13:05.937Z,20.01
2023-04-16T13:15:33.495Z,20.04
2023-04-16T13:18:01.302Z,20.02
2023-04-16T13:20:28.889Z,19.96
2023-04-16T13:22:56.812Z,19.58
2023-04-16T13:25:24.922Z,19.83
2023-04-16T13:27:52.767Z,20.56
2023-04-16T13:30:20.455Z,21.06
2023-04-16T13:32:48.213Z,20.66
2023-04-16T13:35:15.776Z,20.46
2023-04-16T13:37:43.377Z,20.10
2023-04-16T13:40:11.005Z,20.12
2023-04-16T13:42:39.578Z,20.01
2023-04-16T13:45:09.545Z,19.91
2023-04-16T13:47:38.458Z,19.50
2023-04-16T13:50:05.874Z,19.80
2023-04-16T13:52:33.572Z,19.83
2023-04-16T13:55:01.740Z,19.81
2023-04-16T13:57:28.933Z,19.73
2023-04-16T13:59:56.375Z,19.64
2023-04-16T14:02:24.218Z,19.53
2023-04-16T14:04:51.110Z,19.42
2023-04-16T14:07:18.087Z,19.28
2023-04-16T14:09:45.082Z,19.34
2023-04-16T14:12:12.228Z,19.54
2023-04-16T14:14:39.251Z,19.58
2023-04-16T14:17:07.665Z,19.35
2023-04-16T14:19:34.550Z,19.19
2023-04-16T14:22:01.427Z,19.03
2023-04-16T14:24:30.042Z,19.06
2023-04-16T14:26:56.856Z,18.91
2023-04-16T14:29:27.345Z,18.65
2023-04-16T14:31:54.191Z,18.65
2023-04-16T14:34:21.237Z,18.15
2023-04-16T14:36:49.910Z,18.12
2023-04-16T14:39:16.882Z,17.05
2023-04-16T14:41:43.921Z,16.79
2023-04-16T14:44:13.783Z,16.81
2023-04-16T14:46:41.186Z,16.33
2023-04-16T14:49:11.548Z,15.66
2023-04-16T14:51:39.025Z,15.18
2023-04-16T14:54:06.043Z,15.13
2023-04-16T14:56:33.066Z,15.62
2023-04-16T14:59:00.829Z,15.81
2023-04-16T15:01:27.790Z,16.08
2023-04-16T15:03:57.438Z,16.45
2023-04-16T15:06:24.847Z,16.70
2023-04-16T15:08:51.745Z,16.95
2023-04-16T15:11:18.496Z,17.27
2023-04-16T15:13:45.208Z,17.04
2023-04-16T15:16:12.220Z,16.90
2023-04-16T15:18:39.226Z,16.94
2023-04-16T15:21:06.468Z,17.08
2023-04-16T15:23:33.206Z,16.95
2023-04-16T15:26:00.050Z,16.46
2023-04-16T15:28:27.260Z,16.72
2023-04-16T15:30:57.683Z,16.85
2023-04-16T15:33:25.044Z,16.69
2023-04-16T15:35:52.562Z,16.78
2023-04-16T15:38:21.533Z,17.08
2023-04-16T15:40:48.474Z,17.10
2023-04-16T15:43:16.401Z,17.19
2023-04-16T15:45:45.144Z,17.35
2023-04-16T15:48:12.140Z,17.08
2023-04-16T15:50:42.675Z,16.94
2023-04-16T15:53:10.443Z,16.91
2023-04-16T15:55:38.126Z,17.16
2023-04-16T15:58:05.926Z,17.22
2023-04-16T16:00:34.745Z,15.88
2023-04-16T16:03:04.400Z,15.56
2023-04-16T16:05:33.416Z,15.59
2023-04-16T16:08:02.948Z,15.28
2023-04-16T16:10:30.717Z,15.16
2023-04-16T16:13:05.482Z,15.53
2023-04-16T16:15:32.622Z,15.41
2023-04-16T16:17:59.495Z,15.64
2023-04-16T16:20:27.880Z,15.51
2023-04-16T16:22:56.766Z,15.30
2023-04-16T16:25:27.536Z,14.90
2023-04-16T16:27:54.797Z,15.16
2023-04-16T16:30:21.835Z,15.55
2023-04-16T16:32:51.423Z,15.52
2023-04-16T16:35:18.437Z,15.46
2023-04-16T16:37:55.454Z,15.25
2023-04-16T16:40:24.494Z,15.25
2023-04-16T16:42:51.688Z,14.90
2023-04-16T16:45:19.104Z,14.94
2023-04-16T16:47:48.942Z,15.24
2023-04-16T16:50:17.004Z,15.06
2023-04-16T16:52:44.933Z,14.78
2023-04-16T16:55:18.663Z,15.13
2023-04-16T16:57:46.160Z,15.07
2023-04-16T17:00:16.453Z,15.18
2023-04-16T17:02:44.418Z,15.42
2023-04-16T17:05:12.787Z,15.34
2023-04-16T17:07:41.519Z,14.79
2023-04-16T17:10:13.244Z,14.88
2023-04-16T17:12:51.723Z,14.96
2023-04-16T17:15:21.796Z,14.82
2023-04-16T17:17:49.298Z,14.95
2023-04-16T17:20:18.224Z,14.91
2023-04-16T17:22:47.845Z,15.04
2023-04-16T17:25:15.038Z,15.11
2023-04-16T17:27:42.195Z,15.03
2023-04-16T17:30:09.455Z,15.09
2023-04-16T17:32:38.722Z,14.86
2023-04-16T17:35:07.038Z,14.95
2023-04-16T17:37:35.203Z,15.01
2023-04-16T17:40:07.710Z,14.70
2023-04-16T17:42:37.570Z,14.66
2023-04-16T17:45:06.645Z,14.58
2023-04-16T17:47:36.528Z,14.83
2023-04-16T17:50:05.113Z,14.94
2023-04-16T17:52:33.802Z,14.33
2023-04-16T17:55:04.415Z,13.93
2023-04-16T17:57:32.203Z,14.26
2023-04-16T18:00:00.408Z,14.18
2023-04-16T18:02:30.032Z,14.57
2023-04-16T18:04:57.130Z,14.23
2023-04-16T18:07:25.010Z,14.05
2023-04-16T18:09:52.876Z,13.95
2023-04-16T18:12:21.664Z,13.95
2023-04-16T18:14:48.641Z,13.88
2023-04-16T18:17:18.377Z,14.04
2023-04-16T18:19:46.093Z,14.04
2023-04-16T18:22:16.310Z,14.27
2023-04-16T18:24:44.191Z,14.16
2023-04-16T18:27:12.970Z,13.96
2023-04-16T18:29:43.767Z,14.03
2023-04-16T18:32:12.508Z,14.04
2023-04-16T18:34:40.912Z,13.74
2023-04-16T18:37:12.910Z,13.84
2023-04-16T18:39:41.882Z,13.87
2023-04-16T18:42:09.709Z,14.03
2023-04-16T18:44:37.098Z,13.46
2023-04-16T18:47:17.818Z,13.46
2023-04-16T18:49:47.561Z,13.45
2023-04-16T18:52:14.650Z,13.38
2023-04-16T18:54:43.803Z,13.20
2023-04-16T18:57:10.728Z,13.39
2023-04-16T18:59:37.641Z,13.31
2023-04-16T19:02:05.441Z,13.34
2023-04-16T19:04:33.959Z,13.21
2023-04-16T19:07:02.316Z,13.46
2023-04-16T19:09:29.165Z,13.09
2023-04-16T19:11:57.494Z,13.17
2023-04-16T19:14:24.477Z,13.20
2023-04-16T19:16:54.969Z,13.25
2023-04-16T19:19:21.820Z,13.43
2023-04-16T19:21:49.736Z,13.39
2023-04-16T19:24:16.721Z,13.60
2023-04-16T19:26:45.057Z,13.42
2023-04-16T19:29:13.321Z,13.54
2023-04-16T19:31:40.250Z,13.33
2023-04-16T19:34:08.276Z,13.47
2023-04-16T19:36:35.504Z,13.39
2023-04-16T19:39:04.032Z,13.48
2023-04-16T19:41:32.156Z,13.53
2023-04-16T19:44:00.093Z,13.70
2023-04-16T19:46:27.772Z,13.82
2023-04-16T19:48:56.997Z,13.68
2023-04-16T19:51:24.940Z,13.75
2023-04-16T19:53:53.395Z,13.81
2023-04-16T19:56:20.540Z,14.05
2023-04-16T19:58:48.259Z,14.02
2023-04-16T20:01:16.464Z,13.85
2023-04-16T20:03:44.224Z,13.78
2023-04-16T20:06:12.148Z,14.01
2023-04-16T20:08:39.940Z,14.18
2023-04-16T20:11:08.716Z,14.05
2023-04-16T20:13:37.833Z,14.09
2023-04-16T20:16:05.848Z,14.16
2023-04-16T20:18:41.508Z,14.00
2023-04-16T20:21:11.911Z,14.08
2023-04-16T20:23:38.727Z,14.16
2023-04-16T20:26:06.070Z,14.13
2023-04-16T20:28:33.037Z,14.28
2023-04-16T20:30:59.902Z,14.10
2023-04-16T20:33:30.734Z,14.24
2023-04-16T20:35:57.538Z,14.08
2023-04-16T20:38:26.289Z,14.12
2023-04-16T20:41:06.475Z,14.25
2023-04-16T20:43:44.043Z,14.29
2023-04-16T20:46:12.471Z,14.19
2023-04-16T20:48:41.572Z,14.26
2023-04-16T20:51:11.545Z,14.30
2023-04-16T20:53:38.621Z,14.23
2023-04-16T20:56:09.314Z,14.24
2023-04-16T20:58:38.372Z,14.42
2023-04-16T21:01:06.106Z,14.35
2023-04-16T21:03:33.856Z,14.42
2023-04-16T21:06:03.960Z,14.52
2023-04-16T21:08:31.288Z,14.50
2023-04-16T21:10:58.451Z,14.61
2023-04-16T21:13:25.381Z,14.63
2023-04-16T21:15:53.881Z,14.59
2023-04-16T21:18:22.059Z,14.65
2023-04-16T21:20:48.823Z,14.69
2023-04-16T21:23:15.607Z,14.79
2023-04-16T21:25:42.524Z,14.81
2023-04-16T21:28:10.543Z,14.78
2023-04-16T21:30:38.606Z,14.68
2023-04-16T21:33:05.946Z,14.56
2023-04-16T21:35:33.308Z,14.60
2023-04-16T21:38:01.059Z,14.54
2023-04-16T21:40:28.771Z,14.40
2023-04-16T21:42:59.184Z,14.63
2023-04-16T21:45:26.004Z,14.53
2023-04-16T21:47:54.490Z,14.58
2023-04-16T21:50:21.342Z,14.73
2023-04-16T21:52:48.625Z,14.48
2023-04-16T21:55:16.728Z,14.63
2023-04-16T21:57:43.732Z,14.40
2023-04-16T22:00:14.478Z,14.13
2023-04-16T22:02:43.004Z,14.30
2023-04-16T22:05:11.442Z,14.34
2023-04-16T22:07:39.170Z,14.24
2023-04-16T22:10:09.054Z,14.20
2023-04-16T22:12:39.991Z,14.37
2023-04-16T22:15:08.169Z,14.45
2023-04-16T22:17:35.494Z,14.22
2023-04-16T22:20:06.748Z,14.31
2023-04-16T22:22:34.494Z,14.48
2023-04-16T22:25:02.414Z,14.53
2023-04-16T22:27:29.208Z,14.60
2023-04-16T22:29:56.980Z,14.45
2023-04-16T22:32:23.923Z,14.62
2023-04-16T22:34:50.861Z,14.29
2023-04-16T22:37:17.795Z,14.46
2023-04-16T22:39:45.644Z,14.51
2023-04-16T22:42:12.446Z,14.40
2023-04-16T22:44:40.106Z,14.37
2023-04-16T22:47:07.790Z,14.19
2023-04-16T22:49:35.106Z,14.40
2023-04-16T22:52:02.794Z,14.34
2023-04-16T22:54:30.581Z,14.19
2023-04-16T22:56:58.064Z,14.31
2023-04-16T22:59:27.841Z,14.43
2023-04-16T23:01:54.703Z,14.43
2023-04-16T23:04:23.580Z,14.24
2023-04-16T23:06:50.628Z,14.36
2023-04-16T23:09:17.534Z,14.41
2023-04-16T23:11:45.787Z,14.66
2023-04-16T23:14:15.617Z,14.50
2023-04-16T23:16:43.510Z,14.50
2023-04-16T23:19:14.929Z,14.04
2023-04-16T23:21:42.023Z,14.04
2023-04-16T23:24:12.393Z,14.25
2023-04-16T23:26:39.287Z,14.46
2023-04-16T23:29:06.143Z,14.48
2023-04-16T23:31:33.058Z,14.29
2023-04-16T23:34:00.033Z,14.37
2023-04-16T23:36:27.945Z,14.06
2023-04-16T23:38:57.509Z,14.16
2023-04-16T23:41:25.407Z,13.62
2023-04-16T23:43:52.390Z,13.88
2023-04-16T23:46:19.267Z,14.04
2023-04-16T23:48:46.170Z,13.87
2023-04-16T23:51:14.869Z,14.04
2023-04-16T23:53:41.921Z,13.88
2023-04-16T23:56:11.263Z,13.90
2023-04-16T23:58:40.258Z,13.82
